createdAt,value
2023-02-27T00:00:36.856Z,101038.41
2023-02-27T00:01:15.488Z,101034.59
2023-02-27T00:01:54.172Z,101038.41
2023-02-27T00:02:33.153Z,101035.94
2023-02-27T00:03:12.504Z,101032.97
2023-02-27T00:03:51.386Z,101040.88
2023-02-27T00:04:30.623Z,101027.25
2023-02-27T00:05:08.606Z,101040.88
2023-02-27T00:05:47.007Z,101034.59
2023-02-27T00:06:26.468Z,101038.97
2023-02-27T00:07:05.363Z,101040.31
2023-02-27T00:07:43.863Z,101038.41
2023-02-27T00:08:23.358Z,101041.69
2023-02-27T00:09:02.175Z,101029.69
2023-02-27T00:09:40.951Z,101038.97
2023-02-27T00:10:19.699Z,101032.69
2023-02-27T00:10:57.940Z,101036.25
2023-02-27T00:11:37.132Z,101033.50
2023-02-27T00:12:17.462Z,101037.59
2023-02-27T00:12:56.146Z,101032.69
2023-02-27T00:13:35.267Z,101035.41
2023-02-27T00:14:14.570Z,101030.78
2023-02-27T00:14:52.026Z,101040.06
2023-02-27T00:15:31.332Z,101042.53
2023-02-27T00:16:11.859Z,101036.78
2023-02-27T00:16:50.009Z,101040.31
2023-02-27T00:17:28.580Z,101035.13
2023-02-27T00:18:07.942Z,101040.03
2023-02-27T00:18:46.566Z,101041.13
2023-02-27T00:19:25.666Z,101038.38
2023-02-27T00:20:05.096Z,101036.47
2023-02-27T00:20:43.725Z,101034.84
2023-02-27T00:21:22.047Z,101036.47
2023-02-27T00:22:01.557Z,101034.00
2023-02-27T00:22:40.551Z,101038.13
2023-02-27T00:23:19.479Z,101037.31
2023-02-27T00:23:59.388Z,101036.22
2023-02-27T00:24:38.596Z,101032.41
2023-02-27T00:25:17.977Z,101035.41
2023-02-27T00:25:56.671Z,101035.94
2023-02-27T00:26:35.300Z,101040.31
2023-02-27T00:27:14.722Z,101043.31
2023-02-27T00:27:54.310Z,101038.69
2023-02-27T00:28:33.627Z,101037.03
2023-02-27T00:29:12.256Z,101037.31
2023-02-27T00:29:52.507Z,101034.84
2023-02-27T00:30:31.499Z,101029.94
2023-02-27T00:31:10.541Z,101038.13
2023-02-27T00:31:49.140Z,101033.50
2023-02-27T00:32:28.778Z,101047.41
2023-02-27T00:33:07.367Z,101038.38
2023-02-27T00:33:46.311Z,101036.78
2023-02-27T00:34:25.121Z,101045.47
2023-02-27T00:35:04.694Z,101037.56
2023-02-27T00:35:43.340Z,101040.59
2023-02-27T00:36:21.430Z,101038.13
2023-02-27T00:36:59.196Z,101039.75
2023-02-27T00:37:37.277Z,101041.38
2023-02-27T00:38:16.733Z,101042.75
2023-02-27T00:38:55.524Z,101040.59
2023-02-27T00:39:34.150Z,101046.88
2023-02-27T00:40:12.636Z,101039.75
2023-02-27T00:40:50.538Z,101040.28
2023-02-27T00:41:29.357Z,101039.75
2023-02-27T00:42:07.259Z,101037.84
2023-02-27T00:42:45.856Z,101034.31
2023-02-27T00:43:25.267Z,101040.84
2023-02-27T00:44:03.302Z,101038.69
2023-02-27T00:44:42.899Z,101040.31
2023-02-27T00:45:21.387Z,101036.75
2023-02-27T00:46:00.724Z,101032.94
2023-02-27T00:46:39.477Z,101039.22
2023-02-27T00:47:18.370Z,101042.75
2023-02-27T00:47:57.262Z,101034.56
2023-02-27T00:48:37.725Z,101040.59
2023-02-27T00:49:15.370Z,101032.66
2023-02-27T00:49:55.379Z,101041.41
2023-02-27T00:50:35.934Z,101039.75
2023-02-27T00:51:15.819Z,101037.31
2023-02-27T00:51:55.760Z,101043.31
2023-02-27T00:52:35.162Z,101032.66
2023-02-27T00:53:13.862Z,101037.03
2023-02-27T00:53:52.831Z,101039.22
2023-02-27T00:54:30.959Z,101036.75
2023-02-27T00:55:08.857Z,101031.81
2023-02-27T00:55:47.984Z,101035.66
2023-02-27T00:56:26.968Z,101036.47
2023-02-27T00:57:06.282Z,101034.00
2023-02-27T00:57:46.328Z,101037.00
2023-02-27T00:58:25.318Z,101041.38
2023-02-27T00:59:04.413Z,101034.84
2023-02-27T00:59:42.380Z,101034.84
2023-02-27T01:00:21.099Z,101033.47
2023-02-27T01:00:59.824Z,101035.09
2023-02-27T01:01:39.229Z,101038.38
2023-02-27T01:02:17.893Z,101032.09
2023-02-27T01:02:57.734Z,101035.41
2023-02-27T01:03:36.245Z,101033.19
2023-02-27T01:04:15.934Z,101037.31
2023-02-27T01:04:53.411Z,101041.66
2023-02-27T01:05:31.745Z,101034.56
2023-02-27T01:06:09.620Z,101031.28
2023-02-27T01:06:48.604Z,101036.47
2023-02-27T01:07:28.149Z,101037.81
2023-02-27T01:08:07.252Z,101041.94
2023-02-27T01:08:46.578Z,101037.56
2023-02-27T01:09:25.228Z,101039.22
2023-02-27T01:10:04.216Z,101038.66
2023-02-27T01:10:43.092Z,101033.19
2023-02-27T01:11:23.030Z,101030.47
2023-02-27T01:12:01.556Z,101031.03
2023-02-27T01:12:41.319Z,101040.84
2023-02-27T01:13:20.151Z,101035.91
2023-02-27T01:14:00.395Z,101034.53
2023-02-27T01:14:39.063Z,101031.81
2023-02-27T01:15:17.675Z,101031.81
2023-02-27T01:15:56.467Z,101033.72
2023-02-27T01:16:35.648Z,101035.38
2023-02-27T01:17:14.818Z,101029.38
2023-02-27T01:17:54.110Z,101031.56
2023-02-27T01:18:33.524Z,101036.19
2023-02-27T01:19:12.944Z,101038.09
2023-02-27T01:19:52.433Z,101031.56
2023-02-27T01:20:31.336Z,101029.38
2023-02-27T01:21:10.412Z,101031.56
2023-02-27T01:21:47.640Z,101035.38
2023-02-27T01:22:26.435Z,101031.28
2023-02-27T01:23:05.033Z,101031.56
2023-02-27T01:23:43.595Z,101035.91
2023-02-27T01:24:22.113Z,101035.63
2023-02-27T01:25:01.591Z,101032.91
2023-02-27T01:25:40.785Z,101035.38
2023-02-27T01:26:19.487Z,101038.09
2023-02-27T01:26:58.477Z,101039.19
2023-02-27T01:27:38.291Z,101031.78
2023-02-27T01:28:18.428Z,101036.16
2023-02-27T01:28:57.954Z,101033.44
2023-02-27T01:29:38.536Z,101037.25
2023-02-27T01:30:17.862Z,101031.81
2023-02-27T01:30:56.661Z,101034.53
2023-02-27T01:31:35.153Z,101034.28
2023-02-27T01:32:15.408Z,101040.53
2023-02-27T01:32:54.844Z,101039.44
2023-02-27T01:33:33.905Z,101036.19
2023-02-27T01:34:12.792Z,101041.38
2023-02-27T01:34:51.936Z,101036.75
2023-02-27T01:35:31.449Z,101038.91
2023-02-27T01:36:10.470Z,101037.81
2023-02-27T01:36:49.043Z,101035.09
2023-02-27T01:37:28.389Z,101028.25
2023-02-27T01:38:08.276Z,101037.81
2023-02-27T01:38:47.661Z,101037.56
2023-02-27T01:39:26.935Z,101034.28
2023-02-27T01:40:06.412Z,101033.47
2023-02-27T01:40:45.760Z,101031.28
2023-02-27T01:41:24.661Z,101036.19
2023-02-27T01:42:02.705Z,101037.81
2023-02-27T01:42:42.734Z,101035.91
2023-02-27T01:43:21.805Z,101037.78
2023-02-27T01:44:01.377Z,101038.09
2023-02-27T01:44:39.608Z,101039.75
2023-02-27T01:45:18.319Z,101035.38
2023-02-27T01:45:58.370Z,101029.66
2023-02-27T01:46:37.140Z,101029.91
2023-02-27T01:47:15.943Z,101039.47
2023-02-27T01:47:55.039Z,101034.84
2023-02-27T01:48:33.934Z,101031.03
2023-02-27T01:49:12.905Z,101030.19
2023-02-27T01:49:51.385Z,101029.38
2023-02-27T01:50:30.158Z,101034.84
2023-02-27T01:51:09.330Z,101035.66
2023-02-27T01:51:48.484Z,101031.81
2023-02-27T01:52:27.738Z,101032.38
2023-02-27T01:53:07.215Z,101033.72
2023-02-27T01:53:46.581Z,101037.81
2023-02-27T01:54:26.519Z,101040.00
2023-02-27T01:55:05.609Z,101042.72
2023-02-27T01:55:45.364Z,101038.09
2023-02-27T01:56:25.366Z,101035.66
2023-02-27T01:57:03.860Z,101037.00
2023-02-27T01:57:43.734Z,101030.44
2023-02-27T01:58:23.078Z,101038.91
2023-02-27T01:59:01.757Z,101037.28
2023-02-27T01:59:39.912Z,101033.72
2023-02-27T02:00:18.458Z,101035.63
2023-02-27T02:00:57.194Z,101032.09
2023-02-27T02:01:36.485Z,101035.06
2023-02-27T02:02:14.825Z,101034.00
2023-02-27T02:02:54.010Z,101034.00
2023-02-27T02:03:32.569Z,101032.91
2023-02-27T02:04:11.756Z,101031.25
2023-02-27T02:04:49.727Z,101025.53
2023-02-27T02:05:28.191Z,101030.44
2023-02-27T02:06:06.581Z,101026.06
2023-02-27T02:06:46.842Z,101028.81
2023-02-27T02:07:27.109Z,101023.34
2023-02-27T02:08:06.566Z,101034.81
2023-02-27T02:08:45.984Z,101033.47
2023-02-27T02:09:25.022Z,101035.38
2023-02-27T02:10:03.033Z,101031.56
2023-02-27T02:10:41.154Z,101029.66
2023-02-27T02:11:20.499Z,101028.53
2023-02-27T02:11:59.770Z,101033.16
2023-02-27T02:12:38.540Z,101032.91
2023-02-27T02:13:18.779Z,101031.53
2023-02-27T02:13:57.897Z,101032.34
2023-02-27T02:14:37.633Z,101028.78
2023-02-27T02:15:16.369Z,101031.53
2023-02-27T02:15:54.859Z,101032.09
2023-02-27T02:16:33.632Z,101030.13
2023-02-27T02:17:12.856Z,101039.69
2023-02-27T02:17:51.364Z,101028.50
2023-02-27T02:18:30.185Z,101033.13
2023-02-27T02:19:08.821Z,101027.16
2023-02-27T02:19:47.948Z,101028.53
2023-02-27T02:20:26.430Z,101032.09
2023-02-27T02:21:06.681Z,101035.63
2023-02-27T02:21:45.142Z,101031.00
2023-02-27T02:22:24.298Z,101036.44
2023-02-27T02:23:03.634Z,101034.00
2023-02-27T02:23:43.037Z,101023.91
2023-02-27T02:24:22.311Z,101029.31
2023-02-27T02:25:01.795Z,101036.97
2023-02-27T02:25:40.711Z,101028.78
2023-02-27T02:26:19.287Z,101038.63
2023-02-27T02:26:57.903Z,101030.13
2023-02-27T02:27:36.805Z,101034.50
2023-02-27T02:28:15.328Z,101034.81
2023-02-27T02:28:54.044Z,101036.19
2023-02-27T02:29:32.499Z,101032.94
2023-02-27T02:30:12.279Z,101033.44
2023-02-27T02:30:51.978Z,101025.81
2023-02-27T02:31:30.966Z,101035.38
2023-02-27T02:32:10.568Z,101036.19
2023-02-27T02:32:49.818Z,101039.69
2023-02-27T02:33:29.478Z,101038.06
2023-02-27T02:34:08.543Z,101041.56
2023-02-27T02:34:46.796Z,101042.41
2023-02-27T02:35:24.933Z,101040.50
2023-02-27T02:36:04.279Z,101037.22
2023-02-27T02:36:43.060Z,101038.31
2023-02-27T02:37:22.304Z,101038.63
2023-02-27T02:38:00.943Z,101035.06
2023-02-27T02:38:40.039Z,101040.53
2023-02-27T02:39:19.227Z,101041.63
2023-02-27T02:39:59.050Z,101039.69
2023-02-27T02:40:37.514Z,101041.06
2023-02-27T02:41:17.048Z,101037.75
2023-02-27T02:41:56.390Z,101036.69
2023-02-27T02:42:35.871Z,101034.25
2023-02-27T02:43:15.605Z,101034.00
2023-02-27T02:43:55.316Z,101034.00
2023-02-27T02:44:34.681Z,101035.38
2023-02-27T02:45:13.456Z,101033.44
2023-02-27T02:45:52.088Z,101032.59
2023-02-27T02:46:30.842Z,101043.53
2023-02-27T02:47:10.565Z,101043.56
2023-02-27T02:47:52.604Z,101044.06
2023-02-27T02:48:32.051Z,101039.69
2023-02-27T02:49:11.168Z,101044.06
2023-02-27T02:49:52.946Z,101040.22
2023-02-27T02:50:30.726Z,101044.88
2023-02-27T02:51:09.451Z,101048.72
2023-02-27T02:51:49.265Z,101049.25
2023-02-27T02:52:27.183Z,101042.72
2023-02-27T02:53:06.810Z,101040.81
2023-02-27T02:53:45.377Z,101046.28
2023-02-27T02:54:24.253Z,101045.75
2023-02-27T02:55:02.574Z,101046.84
2023-02-27T02:55:40.790Z,101054.19
2023-02-27T02:56:19.490Z,101043.28
2023-02-27T02:56:58.115Z,101044.09
2023-02-27T02:57:36.952Z,101046.28
2023-02-27T02:58:15.229Z,101041.38
2023-02-27T02:58:54.197Z,101043.56
2023-02-27T02:59:32.319Z,101046.00
2023-02-27T03:00:10.724Z,101041.38
2023-02-27T03:00:49.620Z,101045.75
2023-02-27T03:01:27.564Z,101046.56
2023-02-27T03:02:07.217Z,101049.00
2023-02-27T03:02:46.328Z,101046.28
2023-02-27T03:03:25.877Z,101044.38
2023-02-27T03:04:04.757Z,101041.91
2023-02-27T03:04:43.988Z,101043.81
2023-02-27T03:05:21.873Z,101037.53
2023-02-27T03:06:00.609Z,101044.09
2023-02-27T03:06:39.727Z,101045.47
2023-02-27T03:07:19.091Z,101042.47
2023-02-27T03:07:58.308Z,101048.44
2023-02-27T03:08:37.607Z,101046.53
2023-02-27T03:09:16.812Z,101049.25
2023-02-27T03:09:56.394Z,101043.56
2023-02-27T03:10:34.436Z,101039.19
2023-02-27T03:11:13.217Z,101041.09
2023-02-27T03:11:51.580Z,101046.28
2023-02-27T03:12:30.744Z,101043.28
2023-02-27T03:13:09.870Z,101041.13
2023-02-27T03:13:49.298Z,101039.75
2023-02-27T03:14:27.351Z,101045.97
2023-02-27T03:15:08.156Z,101048.16
2023-02-27T03:15:46.755Z,101044.91
2023-02-27T03:16:24.923Z,101043.78
2023-02-27T03:17:04.371Z,101039.16
2023-02-27T03:17:42.781Z,101047.38
2023-02-27T03:18:21.176Z,101039.19
2023-02-27T03:19:00.916Z,101050.63
2023-02-27T03:19:39.873Z,101044.34
2023-02-27T03:20:18.650Z,101045.69
2023-02-27T03:20:57.255Z,101043.00
2023-02-27T03:21:35.699Z,101040.81
2023-02-27T03:22:15.528Z,101033.75
2023-02-27T03:22:54.102Z,101034.84
2023-02-27T03:23:33.922Z,101039.19
2023-02-27T03:24:12.363Z,101043.28
2023-02-27T03:24:51.467Z,101037.56
2023-02-27T03:25:29.900Z,101043.56
2023-02-27T03:26:08.487Z,101039.19
2023-02-27T03:26:47.289Z,101042.47
2023-02-27T03:27:26.013Z,101039.19
2023-02-27T03:28:04.618Z,101039.19
2023-02-27T03:28:43.140Z,101038.66
2023-02-27T03:29:21.820Z,101037.00
2023-02-27T03:30:00.940Z,101040.81
2023-02-27T03:30:39.247Z,101035.38
2023-02-27T03:31:18.056Z,101034.00
2023-02-27T03:31:56.618Z,101040.03
2023-02-27T03:32:35.113Z,101036.75
2023-02-27T03:33:15.030Z,101032.63
2023-02-27T03:33:52.909Z,101034.53
2023-02-27T03:34:31.367Z,101031.78
2023-02-27T03:35:10.611Z,101032.03
2023-02-27T03:35:49.432Z,101033.69
2023-02-27T03:36:28.022Z,101034.50
2023-02-27T03:37:06.678Z,101024.97
2023-02-27T03:37:46.373Z,101033.69
2023-02-27T03:38:25.466Z,101033.69
2023-02-27T03:39:05.023Z,101032.59
2023-02-27T03:39:43.883Z,101032.56
2023-02-27T03:40:22.837Z,101029.84
2023-02-27T03:41:01.155Z,101031.50
2023-02-27T03:41:39.724Z,101033.13
2023-02-27T03:42:18.177Z,101023.88
2023-02-27T03:42:57.470Z,101033.44
2023-02-27T03:43:36.053Z,101032.03
2023-02-27T03:44:15.070Z,101039.41
2023-02-27T03:44:54.434Z,101033.13
2023-02-27T03:45:33.613Z,101038.59
2023-02-27T03:46:12.953Z,101036.38
2023-02-27T03:46:52.755Z,101032.03
2023-02-27T03:47:31.614Z,101036.97
2023-02-27T03:48:10.987Z,101036.41
2023-02-27T03:48:49.653Z,101032.59
2023-02-27T03:49:29.497Z,101039.69
2023-02-27T03:50:08.340Z,101035.59
2023-02-27T03:50:46.333Z,101040.75
2023-02-27T03:51:25.123Z,101043.47
2023-02-27T03:52:03.701Z,101039.94
2023-02-27T03:52:43.168Z,101041.56
2023-02-27T03:53:22.802Z,101042.94
2023-02-27T03:54:02.885Z,101039.13
2023-02-27T03:54:41.320Z,101044.59
2023-02-27T03:55:20.507Z,101044.56
2023-02-27T03:55:59.072Z,101045.13
2023-02-27T03:56:37.374Z,101046.50
2023-02-27T03:57:16.210Z,101046.78
2023-02-27T03:57:56.287Z,101054.69
2023-02-27T03:58:34.586Z,101050.03
2023-02-27T03:59:13.419Z,101051.66
2023-02-27T03:59:52.030Z,101049.19
2023-02-27T04:00:31.024Z,101047.84
2023-02-27T04:01:09.324Z,101052.22
2023-02-27T04:01:47.367Z,101050.59
2023-02-27T04:02:25.333Z,101044.31
2023-02-27T04:03:04.953Z,101053.84
2023-02-27T04:03:43.246Z,101052.19
2023-02-27T04:04:22.840Z,101054.41
2023-02-27T04:05:00.707Z,101053.56
2023-02-27T04:05:40.346Z,101048.94
2023-02-27T04:06:18.899Z,101051.66
2023-02-27T04:06:58.582Z,101050.84
2023-02-27T04:07:37.632Z,101056.84
2023-02-27T04:08:17.199Z,101055.78
2023-02-27T04:08:56.202Z,101056.31
2023-02-27T04:09:35.791Z,101053.84
2023-02-27T04:10:14.812Z,101063.13
2023-02-27T04:10:53.731Z,101060.41
2023-02-27T04:11:31.971Z,101056.84
2023-02-27T04:12:10.476Z,101062.56
2023-02-27T04:12:49.773Z,101061.50
2023-02-27T04:13:28.987Z,101057.69
2023-02-27T04:14:08.445Z,101062.06
2023-02-27T04:14:47.720Z,101060.16
2023-02-27T04:15:26.574Z,101054.44
2023-02-27T04:16:06.139Z,101054.44
2023-02-27T04:16:45.415Z,101060.16
2023-02-27T04:17:23.898Z,101063.13
2023-02-27T04:18:03.501Z,101059.84
2023-02-27T04:18:42.826Z,101066.13
2023-02-27T04:19:22.062Z,101065.88
2023-02-27T04:20:02.291Z,101066.94
2023-02-27T04:20:41.660Z,101065.56
2023-02-27T04:21:20.884Z,101072.41
2023-02-27T04:21:59.550Z,101069.63
2023-02-27T04:22:38.519Z,101070.16
2023-02-27T04:23:18.249Z,101070.47
2023-02-27T04:23:57.479Z,101069.06
2023-02-27T04:24:36.858Z,101068.81
2023-02-27T04:25:15.922Z,101070.19
2023-02-27T04:25:54.345Z,101079.75
2023-02-27T04:26:32.756Z,101078.41
2023-02-27T04:27:11.181Z,101074.03
2023-02-27T04:27:49.308Z,101076.50
2023-02-27T04:28:28.000Z,101070.75
2023-02-27T04:29:08.322Z,101076.78
2023-02-27T04:29:47.598Z,101071.31
2023-02-27T04:30:26.246Z,101075.94
2023-02-27T04:31:04.994Z,101070.75
2023-02-27T04:31:43.024Z,101081.94
2023-02-27T04:32:20.946Z,101078.69
2023-02-27T04:32:59.892Z,101076.78
2023-02-27T04:33:38.680Z,101081.97
2023-02-27T04:34:18.125Z,101083.31
2023-02-27T04:34:56.655Z,101082.53
2023-02-27T04:35:36.184Z,101077.06
2023-02-27T04:36:15.442Z,101081.19
2023-02-27T04:36:54.476Z,101077.91
2023-02-27T04:37:33.490Z,101074.09
2023-02-27T04:38:13.253Z,101078.16
2023-02-27T04:38:52.429Z,101080.06
2023-02-27T04:39:31.510Z,101082.78
2023-02-27T04:40:10.788Z,101078.97
2023-02-27T04:40:48.979Z,101082.53
2023-02-27T04:41:28.015Z,101087.16
2023-02-27T04:42:06.068Z,101077.34
2023-02-27T04:42:44.579Z,101087.16
2023-02-27T04:43:24.220Z,101080.06
2023-02-27T04:44:03.065Z,101085.78
2023-02-27T04:44:40.891Z,101086.59
2023-02-27T04:45:20.154Z,101080.06
2023-02-27T04:46:00.109Z,101087.94
2023-02-27T04:46:39.038Z,101090.41
2023-02-27T04:47:17.504Z,101088.25
2023-02-27T04:47:55.948Z,101082.22
2023-02-27T04:48:35.722Z,101079.50
2023-02-27T04:49:14.311Z,101081.16
2023-02-27T04:49:53.753Z,101076.25
2023-02-27T04:50:32.259Z,101085.00
2023-02-27T04:51:11.822Z,101083.63
2023-02-27T04:51:51.062Z,101081.16
2023-02-27T04:52:29.234Z,101082.78
2023-02-27T04:53:07.042Z,101085.53
2023-02-27T04:53:46.453Z,101089.06
2023-02-27T04:54:25.654Z,101095.59
2023-02-27T04:55:04.890Z,101081.16
2023-02-27T04:55:44.355Z,101086.03
2023-02-27T04:56:23.561Z,101083.31
2023-02-27T04:57:02.708Z,101084.41
2023-02-27T04:57:40.793Z,101089.84
2023-02-27T04:58:19.353Z,101090.13
2023-02-27T04:58:58.216Z,101092.84
2023-02-27T04:59:37.396Z,101094.47
2023-02-27T05:00:14.716Z,101098.28
2023-02-27T05:00:54.234Z,101098.03
2023-02-27T05:01:32.934Z,101091.50
2023-02-27T05:02:12.177Z,101098.84
2023-02-27T05:02:50.236Z,101099.69
2023-02-27T05:03:28.707Z,101094.78
2023-02-27T05:04:08.418Z,101092.63
2023-02-27T05:04:48.908Z,101097.22
2023-02-27T05:05:28.076Z,101089.03
2023-02-27T05:06:07.644Z,101101.88
2023-02-27T05:06:46.133Z,101090.16
2023-02-27T05:07:25.921Z,101091.28
2023-02-27T05:08:03.888Z,101100.53
2023-02-27T05:08:42.511Z,101099.72
2023-02-27T05:09:21.227Z,101097.00
2023-02-27T05:10:00.459Z,101098.06
2023-02-27T05:10:39.124Z,101094.78
2023-02-27T05:11:18.818Z,101100.75
2023-02-27T05:11:57.875Z,101100.75
2023-02-27T05:12:36.310Z,101097.78
2023-02-27T05:13:15.718Z,101100.25
2023-02-27T05:13:54.296Z,101095.88
2023-02-27T05:14:33.586Z,101101.31
2023-02-27T05:15:11.999Z,101097.00
2023-02-27T05:15:50.866Z,101098.06
2023-02-27T05:16:30.209Z,101095.34
2023-02-27T05:17:08.785Z,101093.97
2023-02-27T05:17:48.186Z,101096.44
2023-02-27T05:18:26.502Z,101095.59
2023-02-27T05:19:05.289Z,101099.16
2023-02-27T05:19:44.362Z,101097.50
2023-02-27T05:20:23.730Z,101093.13
2023-02-27T05:21:02.071Z,101094.78
2023-02-27T05:21:41.903Z,101096.44
2023-02-27T05:22:21.034Z,101098.59
2023-02-27T05:22:59.968Z,101106.22
2023-02-27T05:23:37.919Z,101101.84
2023-02-27T05:24:16.570Z,101107.88
2023-02-27T05:24:55.166Z,101109.50
2023-02-27T05:25:34.324Z,101107.59
2023-02-27T05:26:12.769Z,101106.53
2023-02-27T05:26:51.953Z,101114.13
2023-02-27T05:27:31.111Z,101114.97
2023-02-27T05:28:10.588Z,101108.94
2023-02-27T05:28:49.308Z,101113.88
2023-02-27T05:29:28.335Z,101120.72
2023-02-27T05:30:08.537Z,101114.19
2023-02-27T05:30:48.024Z,101109.81
2023-02-27T05:31:26.370Z,101110.63
2023-02-27T05:32:05.236Z,101114.44
2023-02-27T05:32:43.832Z,101119.91
2023-02-27T05:33:23.090Z,101117.44
2023-02-27T05:34:00.985Z,101113.88
2023-02-27T05:34:39.354Z,101113.06
2023-02-27T05:35:17.403Z,101115.53
2023-02-27T05:35:56.758Z,101110.59
2023-02-27T05:36:36.116Z,101116.31
2023-02-27T05:37:15.392Z,101111.66
2023-02-27T05:37:54.126Z,101114.97
2023-02-27T05:38:33.081Z,101118.78
2023-02-27T05:39:11.301Z,101114.97
2023-02-27T05:39:49.800Z,101111.66
2023-02-27T05:40:29.122Z,101116.31
2023-02-27T05:41:09.222Z,101115.75
2023-02-27T05:41:46.485Z,101115.75
2023-02-27T05:42:25.455Z,101109.22
2023-02-27T05:43:05.835Z,101113.84
2023-02-27T05:43:44.167Z,101116.31
2023-02-27T05:44:22.486Z,101120.94
2023-02-27T05:45:01.008Z,101121.75
2023-02-27T05:45:39.533Z,101114.13
2023-02-27T05:46:17.567Z,101114.97
2023-02-27T05:46:57.610Z,101119.28
2023-02-27T05:47:36.925Z,101114.97
2023-02-27T05:48:18.420Z,101114.41
2023-02-27T05:48:56.887Z,101113.06
2023-02-27T05:49:35.456Z,101113.56
2023-02-27T05:50:14.088Z,101115.78
2023-02-27T05:50:53.254Z,101110.03
2023-02-27T05:51:32.387Z,101112.50
2023-02-27T05:52:12.379Z,101112.22
2023-02-27T05:52:52.118Z,101119.34
2023-02-27T05:53:32.231Z,101118.00
2023-02-27T05:54:12.548Z,101118.81
2023-02-27T05:54:51.319Z,101123.72
2023-02-27T05:55:30.248Z,101111.66
2023-02-27T05:56:09.950Z,101111.66
2023-02-27T05:56:48.303Z,101119.84
2023-02-27T05:57:26.508Z,101113.31
2023-02-27T05:58:05.805Z,101121.25
2023-02-27T05:58:44.543Z,101124.75
2023-02-27T05:59:21.696Z,101129.69
2023-02-27T06:00:00.134Z,101128.03
2023-02-27T06:00:39.028Z,101134.00
2023-02-27T06:01:18.423Z,101136.47
2023-02-27T06:01:58.233Z,101134.00
2023-02-27T06:02:37.084Z,101126.41
2023-02-27T06:03:15.536Z,101132.66
2023-02-27T06:03:54.082Z,101132.09
2023-02-27T06:04:33.241Z,101132.66
2023-02-27T06:05:11.804Z,101140.84
2023-02-27T06:05:51.032Z,101134.56
2023-02-27T06:06:30.019Z,101129.13
2023-02-27T06:07:08.965Z,101133.22
2023-02-27T06:07:47.718Z,101132.38
2023-02-27T06:08:27.540Z,101128.56
2023-02-27T06:09:06.524Z,101144.16
2023-02-27T06:09:44.805Z,101129.16
2023-02-27T06:10:23.305Z,101141.72
2023-02-27T06:11:03.098Z,101140.06
2023-02-27T06:11:42.168Z,101139.50
2023-02-27T06:12:20.880Z,101135.13
2023-02-27T06:12:59.730Z,101132.41
2023-02-27T06:13:41.715Z,101139.25
2023-02-27T06:14:19.536Z,101134.31
2023-02-27T06:14:59.026Z,101138.69
2023-02-27T06:15:37.386Z,101140.34
2023-02-27T06:16:16.712Z,101137.88
2023-02-27T06:16:56.216Z,101139.50
2023-02-27T06:17:36.182Z,101147.13
2023-02-27T06:18:15.306Z,101147.13
2023-02-27T06:18:54.527Z,101148.78
2023-02-27T06:19:32.547Z,101150.16
2023-02-27T06:20:11.286Z,101145.53
2023-02-27T06:20:50.161Z,101145.78
2023-02-27T06:21:29.709Z,101146.34
2023-02-27T06:22:08.170Z,101146.09
2023-02-27T06:22:51.496Z,101152.63
2023-02-27T06:23:31.340Z,101150.41
2023-02-27T06:24:08.932Z,101153.16
2023-02-27T06:24:46.605Z,101146.88
2023-02-27T06:25:25.919Z,101153.66
2023-02-27T06:26:04.665Z,101157.47
2023-02-27T06:26:43.042Z,101161.59
2023-02-27T06:27:22.932Z,101164.31
2023-02-27T06:28:00.982Z,101162.97
2023-02-27T06:28:40.537Z,101160.00
2023-02-27T06:29:18.288Z,101166.25
2023-02-27T06:29:56.894Z,101164.88
2023-02-27T06:30:35.280Z,101164.56
2023-02-27T06:31:14.855Z,101166.47
2023-02-27T06:31:53.778Z,101163.75
2023-02-27T06:32:33.650Z,101168.13
2023-02-27T06:33:13.102Z,101165.72
2023-02-27T06:33:53.088Z,101170.91
2023-02-27T06:34:31.862Z,101173.88
2023-02-27T06:35:10.447Z,101173.31
2023-02-27T06:35:49.874Z,101165.72
2023-02-27T06:36:29.481Z,101173.06
2023-02-27T06:37:08.493Z,101172.50
2023-02-27T06:37:47.652Z,101164.63
2023-02-27T06:38:27.096Z,101168.44
2023-02-27T06:39:06.200Z,101173.31
2023-02-27T06:39:45.227Z,101174.97
2023-02-27T06:40:23.644Z,101171.69
2023-02-27T06:41:02.807Z,101172.50
2023-02-27T06:41:41.980Z,101170.59
2023-02-27T06:42:21.112Z,101180.44
2023-02-27T06:43:00.630Z,101176.63
2023-02-27T06:43:40.174Z,101170.63
2023-02-27T06:44:19.940Z,101179.91
2023-02-27T06:44:58.294Z,101179.66
2023-02-27T06:45:32.734Z,101184.03
2023-02-27T06:46:12.994Z,101184.53
2023-02-27T06:46:51.285Z,101177.19
2023-02-27T06:47:31.222Z,101183.41
2023-02-27T06:48:09.626Z,101185.88
2023-02-27T06:48:48.798Z,101177.41
2023-02-27T06:49:27.779Z,101177.13
2023-02-27T06:50:06.110Z,101176.31
2023-02-27T06:50:44.668Z,101183.66
2023-02-27T06:51:23.912Z,101182.59
2023-02-27T06:52:03.060Z,101177.97
2023-02-27T06:52:42.622Z,101185.06
2023-02-27T06:53:21.970Z,101187.22
2023-02-27T06:54:01.563Z,101183.66
2023-02-27T06:54:40.789Z,101189.69
2023-02-27T06:55:19.502Z,101182.59
2023-02-27T06:55:58.317Z,101180.63
2023-02-27T06:56:37.714Z,101196.75
2023-02-27T06:57:17.651Z,101188.56
2023-02-27T06:57:56.696Z,101184.50
2023-02-27T06:58:36.017Z,101187.22
2023-02-27T06:59:15.127Z,101192.69
2023-02-27T06:59:55.198Z,101180.63
2023-02-27T07:00:33.753Z,101185.56
2023-02-27T07:01:12.581Z,101185.56
2023-02-27T07:01:50.891Z,101185.31
2023-02-27T07:02:30.228Z,101198.66
2023-02-27T07:03:09.224Z,101197.81
2023-02-27T07:03:48.038Z,101195.41
2023-02-27T07:04:27.618Z,101195.66
2023-02-27T07:05:08.086Z,101197.31
2023-02-27T07:05:45.418Z,101197.00
2023-02-27T07:07:32.058Z,101199.72
2023-02-27T07:07:35.932Z,101198.94
2023-02-27T07:08:15.147Z,101201.69
2023-02-27T07:09:02.196Z,101200.28
2023-02-27T07:09:43.959Z,101198.34
2023-02-27T07:10:23.652Z,101201.63
2023-02-27T07:11:02.462Z,101200.28
2023-02-27T07:11:41.073Z,101197.81
2023-02-27T07:12:20.439Z,101202.75
2023-02-27T07:12:59.580Z,101206.56
2023-02-27T07:13:39.007Z,101204.94
2023-02-27T07:14:17.723Z,101208.16
2023-02-27T07:14:57.261Z,101204.94
2023-02-27T07:15:36.556Z,101215.56
2023-02-27T07:16:15.368Z,101212.28
2023-02-27T07:16:53.796Z,101219.13
2023-02-27T07:17:32.398Z,101213.66
2023-02-27T07:18:11.383Z,101215.00
2023-02-27T07:18:49.644Z,101220.22
2023-02-27T07:19:29.004Z,101210.94
2023-02-27T07:20:07.031Z,101213.16
2023-02-27T07:20:46.138Z,101222.41
2023-02-27T07:21:24.321Z,101219.38
2023-02-27T07:22:03.016Z,101219.13
2023-02-27T07:22:41.964Z,101220.22
2023-02-27T07:23:20.866Z,101217.47
2023-02-27T07:23:59.840Z,101222.69
2023-02-27T07:24:38.777Z,101221.03
2023-02-27T07:25:16.946Z,101226.22
2023-02-27T07:25:55.516Z,101229.22